createdAt,value
2022-11-02T00:01:04.768Z,47.11
2022-11-02T00:06:59.771Z,47.40
2022-11-02T00:09:52.044Z,45.95
2022-11-02T00:12:35.782Z,46.32
2022-11-02T00:18:06.265Z,48.20
2022-11-02T00:24:08.642Z,47.55
2022-11-02T04:03:22.838Z,56.28
2022-11-02T04:08:55.437Z,56.97
2022-11-02T04:11:52.361Z,57.29
2022-11-02T04:14:43.766Z,57.59
2022-11-02T04:20:36.691Z,57.71
2022-11-02T04:23:35.484Z,57.73
2022-11-02T04:26:04.269Z,57.82
2022-11-02T04:28:42.447Z,58.03
2022-11-02T04:31:18.398Z,57.43
2022-11-02T04:33:53.431Z,57.48
2022-11-02T04:36:38.106Z,57.51
2022-11-02T04:39:18.085Z,57.35
2022-11-02T04:41:48.897Z,57.33
2022-11-02T04:44:17.944Z,57.64
2022-11-02T04:46:46.566Z,57.58
2022-11-02T04:49:19.661Z,57.65
2022-11-02T04:51:50.048Z,57.65
2022-11-02T04:54:18.142Z,57.43
2022-11-02T04:56:48.671Z,57.50
2022-11-02T04:59:17.068Z,57.38
2022-11-02T05:01:45.551Z,57.31
2022-11-02T05:04:13.777Z,57.29
2022-11-02T05:06:41.918Z,57.05
2022-11-02T05:09:12.284Z,57.55
2022-11-02T05:11:40.392Z,57.90
2022-11-02T05:14:11.596Z,57.82
2022-11-02T05:16:39.656Z,57.91
2022-11-02T05:19:11.324Z,58.47
2022-11-02T05:21:39.440Z,58.37
2022-11-02T05:24:08.696Z,58.38
2022-11-02T05:26:38.226Z,58.74
2022-11-02T05:29:06.955Z,58.43
2022-11-02T05:31:35.147Z,58.57
2022-11-02T05:34:03.471Z,58.51
2022-11-02T05:36:31.460Z,58.74
2022-11-02T05:39:00.226Z,58.82
2022-11-02T05:41:37.654Z,58.75
2022-11-02T05:44:08.102Z,58.77
2022-11-02T05:46:36.616Z,58.57
2022-11-02T05:49:05.264Z,58.80
2022-11-02T05:51:33.908Z,58.51
2022-11-02T05:54:02.206Z,58.76
2022-11-02T05:56:32.748Z,58.62
2022-11-02T05:59:01.072Z,58.93
2022-11-02T06:01:30.761Z,58.89
2022-11-02T06:03:59.047Z,58.63
2022-11-02T06:06:27.902Z,59.06
2022-11-02T06:08:56.590Z,58.99
2022-11-02T06:11:25.168Z,58.97
2022-11-02T06:13:53.454Z,59.00
2022-11-02T06:16:23.247Z,58.62
2022-11-02T06:18:53.477Z,58.72
2022-11-02T06:21:21.725Z,58.65
2022-11-02T06:23:50.481Z,58.83
2022-11-02T06:26:18.832Z,58.87
2022-11-02T06:28:47.051Z,58.75
2022-11-02T06:31:18.449Z,58.77
2022-11-02T06:33:46.786Z,58.92
2022-11-02T06:36:16.499Z,58.78
2022-11-02T06:38:46.237Z,58.75
2022-11-02T06:41:14.893Z,58.76
2022-11-02T06:43:43.146Z,58.73
2022-11-02T06:46:12.006Z,58.95
2022-11-02T06:48:40.343Z,59.05
2022-11-02T06:51:09.097Z,59.02
2022-11-02T06:53:38.837Z,58.91
2022-11-02T06:56:31.569Z,59.22
2022-11-02T06:59:01.435Z,59.31
2022-11-02T07:01:32.317Z,59.58
2022-11-02T07:04:00.995Z,59.18
2022-11-02T07:06:32.860Z,58.77
2022-11-02T07:09:02.405Z,59.12
2022-11-02T07:11:30.634Z,59.34
2022-11-02T07:14:04.345Z,59.03
2022-11-02T07:16:48.382Z,59.14
2022-11-02T07:19:24.599Z,59.23
2022-11-02T07:22:01.170Z,59.39
2022-11-02T07:24:35.159Z,59.29
2022-11-02T07:30:52.854Z,59.11
2022-11-02T07:33:26.808Z,59.42
2022-11-02T07:36:00.299Z,59.36
2022-11-02T07:41:28.814Z,58.93
2022-11-02T07:47:03.639Z,59.44
2022-11-02T07:49:38.709Z,59.50
2022-11-02T07:52:09.140Z,59.28
2022-11-02T07:54:49.913Z,59.44
2022-11-02T07:57:20.189Z,59.04
2022-11-02T07:59:49.787Z,59.39
2022-11-02T08:02:20.479Z,59.23
2022-11-02T08:04:48.708Z,59.23
2022-11-02T08:07:16.854Z,59.19
2022-11-02T08:09:45.207Z,59.06
2022-11-02T08:12:13.952Z,58.89
2022-11-02T08:14:43.438Z,59.07
2022-11-02T08:17:12.538Z,59.05
2022-11-02T08:19:41.024Z,58.93
2022-11-02T08:22:10.872Z,59.06
2022-11-02T08:24:39.542Z,58.93
2022-11-02T08:27:21.610Z,58.97
2022-11-02T08:29:53.130Z,58.97
2022-11-02T08:32:21.492Z,58.88
2022-11-02T08:34:50.098Z,58.79
2022-11-02T08:37:28.776Z,58.72
2022-11-02T08:40:02.672Z,58.82
2022-11-02T08:42:50.373Z,58.63
2022-11-02T08:45:20.166Z,58.56
2022-11-02T08:47:50.995Z,58.65
2022-11-02T08:50:19.752Z,58.69
2022-11-02T08:52:52.476Z,58.45
2022-11-02T08:55:33.303Z,58.32
2022-11-02T08:58:05.235Z,58.21
2022-11-02T09:00:37.204Z,58.00
2022-11-02T09:03:07.847Z,58.32
2022-11-02T09:05:39.039Z,58.14
2022-11-02T09:10:55.082Z,57.84
2022-11-02T09:13:25.733Z,57.63
2022-11-02T09:16:03.773Z,57.88
2022-11-02T09:18:56.436Z,57.47
2022-11-02T09:21:24.893Z,57.37
2022-11-02T09:23:56.289Z,56.99
2022-11-02T09:26:30.072Z,57.12
2022-11-02T09:28:58.855Z,57.16
2022-11-02T09:32:12.814Z,57.08
2022-11-02T09:44:08.472Z,55.92
2022-11-02T09:46:40.683Z,56.14
2022-11-02T09:57:25.180Z,55.32
2022-11-02T10:03:10.810Z,54.49
2022-11-02T10:14:06.464Z,53.77
2022-11-02T10:49:47.692Z,51.80
2022-11-02T10:53:40.203Z,51.19
2022-11-02T10:56:58.839Z,51.25
2022-11-02T11:43:04.456Z,51.29
2022-11-02T11:53:45.921Z,50.38
2022-11-02T11:57:05.735Z,49.57
2022-11-02T12:31:43.839Z,48.05
2022-11-02T12:35:27.834Z,48.20
2022-11-02T12:38:36.744Z,48.18
2022-11-02T13:10:53.379Z,48.57
2022-11-02T14:25:00.568Z,56.70
2022-11-02T14:31:25.913Z,56.84
2022-11-02T14:42:15.859Z,56.79
2022-11-02T14:45:30.907Z,56.67
2022-11-02T14:51:05.756Z,57.18
2022-11-02T14:53:41.946Z,57.45
2022-11-02T14:56:14.497Z,57.53
2022-11-02T14:58:57.116Z,57.73
2022-11-02T15:01:35.760Z,58.17
2022-11-02T15:04:08.818Z,58.40
2022-11-02T15:06:38.756Z,58.75
2022-11-02T15:09:07.479Z,58.98
2022-11-02T15:15:54.561Z,59.64
2022-11-02T15:18:55.430Z,60.06
2022-11-02T15:21:36.691Z,59.95
2022-11-02T15:24:38.271Z,60.14
2022-11-02T15:27:21.480Z,60.08
2022-11-02T15:29:55.598Z,60.20
2022-11-02T15:32:38.874Z,60.26
2022-11-02T15:35:39.743Z,60.27
2022-11-02T15:38:19.137Z,60.47
2022-11-02T15:41:00.982Z,60.45
2022-11-02T15:43:59.610Z,60.50
2022-11-02T15:46:41.121Z,60.41
2022-11-02T15:49:24.684Z,60.58
2022-11-02T15:52:00.511Z,60.17
2022-11-02T15:54:51.240Z,60.52
2022-11-02T15:57:32.822Z,60.19
2022-11-02T16:00:24.184Z,60.45
2022-11-02T16:02:58.103Z,60.40
2022-11-02T16:05:28.723Z,60.46
2022-11-02T16:08:10.803Z,60.38
2022-11-02T16:10:39.384Z,60.36
2022-11-02T16:13:17.324Z,60.33
2022-11-02T16:15:46.574Z,60.31
2022-11-02T16:18:29.263Z,60.40
2022-11-02T16:21:02.271Z,60.28
2022-11-02T16:23:34.650Z,60.49
2022-11-02T16:26:05.598Z,60.38
2022-11-02T16:28:37.434Z,60.44
2022-11-02T16:31:18.538Z,60.38
2022-11-02T16:33:50.592Z,60.28
2022-11-02T16:36:21.322Z,60.30
2022-11-02T16:39:00.027Z,60.44
2022-11-02T16:41:30.748Z,60.25
2022-11-02T16:44:02.357Z,60.21
2022-11-02T16:46:32.135Z,60.12
2022-11-02T16:49:18.216Z,60.41
2022-11-02T16:51:54.446Z,60.01
2022-11-02T16:54:32.467Z,59.99
2022-11-02T16:57:08.758Z,60.04
2022-11-02T16:59:50.796Z,59.99
2022-11-02T17:02:25.771Z,60.54
2022-11-02T17:05:02.520Z,60.66
2022-11-02T17:07:37.036Z,61.28
2022-11-02T17:10:08.124Z,61.72
2022-11-02T17:12:40.481Z,62.28
2022-11-02T17:15:17.563Z,62.17
2022-11-02T17:17:46.340Z,62.17
2022-11-02T17:20:20.378Z,62.17
2022-11-02T17:22:59.930Z,61.79
2022-11-02T17:25:31.037Z,61.93
2022-11-02T17:28:00.720Z,61.30
2022-11-02T17:30:48.832Z,61.44
2022-11-02T17:33:25.103Z,61.46
2022-11-02T17:35:54.863Z,61.86
2022-11-02T17:38:27.345Z,61.67
2022-11-02T17:40:57.399Z,61.79
2022-11-02T17:43:24.456Z,61.60
2022-11-02T17:45:57.075Z,61.56
2022-11-02T17:48:25.672Z,61.73
2022-11-02T17:50:55.960Z,61.89
2022-11-02T17:56:33.049Z,62.23
2022-11-02T17:59:14.567Z,62.27
2022-11-02T18:01:44.608Z,62.13
2022-11-02T18:04:16.341Z,62.37
2022-11-02T18:06:48.472Z,62.27
2022-11-02T18:09:19.542Z,62.06
2022-11-02T18:11:51.003Z,61.98
2022-11-02T18:14:19.504Z,62.07
2022-11-02T18:16:48.250Z,62.05
2022-11-02T18:19:22.191Z,61.96
2022-11-02T18:21:52.539Z,62.30
2022-11-02T18:24:21.021Z,62.04
2022-11-02T18:26:52.316Z,62.12
2022-11-02T18:29:23.180Z,62.43
2022-11-02T18:31:51.797Z,62.21
2022-11-02T18:34:25.102Z,61.92
2022-11-02T18:37:11.950Z,62.03
2022-11-02T18:54:02.352Z,62.02
2022-11-02T18:56:36.714Z,61.97
2022-11-02T19:01:53.682Z,61.81
2022-11-02T19:04:30.809Z,61.67
2022-11-02T19:07:30.373Z,61.60
2022-11-02T19:10:18.913Z,61.54
2022-11-02T19:15:53.788Z,61.76
2022-11-02T19:18:31.237Z,61.57
2022-11-02T19:21:10.167Z,61.21
2022-11-02T19:24:11.547Z,61.52
2022-11-02T19:29:53.719Z,61.46
2022-11-02T19:32:31.341Z,61.50
2022-11-02T19:35:09.205Z,61.28
2022-11-02T19:37:52.753Z,61.40
2022-11-02T19:40:21.801Z,61.42
2022-11-02T19:42:52.039Z,61.61
2022-11-02T19:45:20.384Z,61.76
2022-11-02T19:47:54.635Z,61.01
2022-11-02T19:50:23.301Z,61.42
2022-11-02T19:52:51.632Z,61.31
2022-11-02T19:55:36.990Z,61.00
2022-11-02T19:58:44.624Z,60.91
2022-11-02T20:01:16.596Z,61.08
2022-11-02T20:04:02.959Z,60.96
2022-11-02T20:06:40.036Z,61.01
2022-11-02T20:09:16.553Z,60.84
2022-11-02T20:14:37.096Z,60.55
2022-11-02T20:19:59.903Z,60.37
2022-11-02T20:22:37.372Z,60.12
2022-11-02T20:25:06.208Z,60.09
2022-11-02T20:27:43.255Z,60.19
2022-11-02T20:30:24.016Z,60.31
2022-11-02T20:32:52.400Z,60.16
2022-11-02T20:35:29.732Z,60.33
2022-11-02T20:37:59.514Z,60.22
2022-11-02T20:40:29.101Z,60.16
2022-11-02T20:43:02.663Z,60.09
2022-11-02T20:45:38.560Z,60.03
2022-11-02T20:48:09.524Z,60.16
2022-11-02T20:50:51.385Z,60.00
2022-11-02T20:53:19.749Z,59.99
2022-11-02T20:55:48.007Z,59.70
2022-11-02T20:58:21.334Z,59.89
2022-11-02T21:01:00.019Z,59.75
2022-11-02T21:03:28.314Z,59.77
2022-11-02T21:06:13.204Z,59.71
2022-11-02T21:27:25.125Z,59.62
2022-11-02T22:01:52.465Z,59.29
